Terminal Aerodrome Forecast
Issued by NWS St Louis, MO

Home | Current Version | Previous Version | Text Only | Print | Product List | Glossary On
Versions: 1 2 3 4 5 6 7 8 9 10 11 12 13 14 15 16 17 18 19 20 21 22 23 24 25 26 27 28
000
FTUS43 KLSX 192338
TAFSTL
TAF
KSTL 192338Z 2000/2106 11005KT 1/2SM -DZ FG VCSH OVC002
     FM200400 VRB04KT 1/4SM -DZ FG OVC002
     FM201400 17005KT 1SM BR OVC003
     FM201700 16006KT 4SM BR OVC010
     FM202000 16008KT P6SM OVC015
     FM210300 17008KT P6SM BKN025=

USA.gov is the U.S. government's official web portal to all federal, state and local government web resources and services.